createdAt,value
2018-12-14T00:00:59.512Z,8.60
2018-12-14T00:03:27.378Z,10.90
2018-12-14T00:05:55.206Z,10.17
2018-12-14T00:08:23.335Z,8.83
2018-12-14T00:10:51.124Z,11.57
2018-12-14T00:13:19.250Z,9.93
2018-12-14T00:15:46.999Z,9.90
2018-12-14T00:18:14.904Z,9.83
2018-12-14T00:20:42.752Z,7.80
2018-12-14T00:23:10.571Z,8.93
2018-12-14T00:25:38.355Z,10.67
2018-12-14T00:28:06.181Z,9.83
2018-12-14T00:30:34.031Z,8.60
2018-12-14T00:33:01.823Z,11.03
2018-12-14T00:35:29.919Z,10.57
2018-12-14T00:37:57.845Z,8.80
2018-12-14T00:40:25.823Z,8.63
2018-12-14T00:42:53.615Z,7.90
2018-12-14T00:45:21.457Z,6.80
2018-12-14T00:47:50.258Z,8.50
2018-12-14T00:50:18.202Z,8.83
2018-12-14T00:52:46.050Z,7.57
2018-12-14T00:55:13.873Z,7.50
2018-12-14T00:57:41.708Z,6.97
2018-12-14T01:00:10.427Z,7.00
2018-12-14T01:02:38.227Z,7.00
2018-12-14T01:05:06.565Z,8.67
2018-12-14T01:07:34.630Z,7.40
2018-12-14T01:10:02.582Z,7.10
2018-12-14T01:12:30.418Z,7.83
2018-12-14T01:14:58.956Z,9.37
2018-12-14T01:17:26.855Z,9.00
2018-12-14T01:19:54.679Z,9.90
2018-12-14T01:22:22.499Z,9.20
2018-12-14T01:24:50.361Z,8.30
2018-12-14T01:27:18.275Z,11.87
2018-12-14T01:29:46.090Z,10.30
2018-12-14T01:32:13.860Z,10.20
2018-12-14T01:34:41.947Z,10.17
2018-12-14T01:37:09.715Z,13.23
2018-12-14T01:39:37.598Z,11.73
2018-12-14T01:42:05.413Z,11.07
2018-12-14T01:44:33.191Z,11.07
2018-12-14T01:47:01.027Z,10.93
2018-12-14T01:49:28.863Z,12.53
2018-12-14T01:51:56.616Z,10.47
2018-12-14T01:54:24.468Z,9.67
2018-12-14T01:56:52.616Z,9.60
2018-12-14T01:59:20.374Z,9.77
2018-12-14T02:01:48.199Z,8.70
2018-12-14T02:04:16.250Z,9.47
2018-12-14T02:06:44.077Z,9.03
2018-12-14T02:09:11.852Z,8.07
2018-12-14T02:11:39.955Z,8.43
2018-12-14T02:14:07.769Z,7.37
2018-12-14T02:16:35.699Z,7.73
2018-12-14T02:19:03.530Z,8.63
2018-12-14T02:21:31.435Z,10.87
2018-12-14T02:23:59.186Z,5.80
2018-12-14T02:26:26.990Z,6.63
2018-12-14T02:28:54.750Z,7.30
2018-12-14T02:31:22.552Z,6.40
2018-12-14T02:33:50.308Z,7.10
2018-12-14T02:36:18.199Z,9.77
2018-12-14T02:38:46.155Z,8.80
2018-12-14T02:41:14.039Z,10.13
2018-12-14T02:43:42.037Z,12.40
2018-12-14T02:46:09.873Z,9.63
2018-12-14T02:48:37.608Z,10.50
2018-12-14T02:51:05.438Z,10.47
2018-12-14T02:53:33.187Z,11.83
2018-12-14T02:56:01.048Z,13.90
2018-12-14T02:58:28.819Z,10.93
2018-12-14T03:00:56.623Z,10.70
2018-12-14T03:03:24.403Z,14.00
2018-12-14T03:05:52.220Z,11.60
2018-12-14T03:08:19.992Z,12.90
2018-12-14T03:10:48.022Z,11.93
2018-12-14T03:13:16.147Z,10.90
2018-12-14T03:15:44.169Z,17.67
2018-12-14T03:18:11.991Z,11.60
2018-12-14T03:20:39.886Z,9.37
2018-12-14T03:23:07.669Z,10.13
2018-12-14T03:25:35.414Z,8.77
2018-12-14T03:28:03.206Z,10.73
2018-12-14T03:30:31.132Z,10.30
2018-12-14T03:32:58.884Z,8.93
2018-12-14T03:35:26.683Z,9.33
2018-12-14T03:37:54.539Z,9.60
2018-12-14T03:40:22.364Z,10.20
2018-12-14T03:42:50.272Z,8.40
2018-12-14T03:45:18.143Z,8.70
2018-12-14T03:47:45.929Z,11.07
2018-12-14T03:50:13.796Z,8.30
2018-12-14T03:52:41.723Z,7.27
2018-12-14T03:55:09.674Z,8.70
2018-12-14T03:57:37.492Z,8.63
2018-12-14T04:00:07.077Z,6.10
2018-12-14T04:02:34.899Z,10.80
2018-12-14T04:05:02.694Z,8.63
2018-12-14T04:07:30.477Z,9.67
2018-12-14T04:09:58.324Z,11.17
2018-12-14T04:12:26.123Z,9.77
2018-12-14T04:14:53.958Z,8.03
2018-12-14T04:17:22.419Z,9.17
2018-12-14T04:19:50.205Z,8.33
2018-12-14T04:22:22.099Z,8.77
2018-12-14T04:24:49.893Z,10.00
2018-12-14T04:27:18.070Z,9.93
2018-12-14T04:29:45.916Z,8.00
2018-12-14T04:32:13.887Z,8.27
2018-12-14T04:34:41.763Z,9.13
2018-12-14T04:37:09.604Z,12.10
2018-12-14T04:39:37.386Z,9.07
2018-12-14T04:42:05.203Z,7.33
2018-12-14T04:44:32.959Z,8.90
2018-12-14T04:47:00.901Z,11.37
2018-12-14T04:49:28.895Z,10.23
2018-12-14T04:51:56.629Z,10.80
2018-12-14T04:54:24.477Z,8.93
2018-12-14T04:56:52.303Z,9.07
2018-12-14T04:59:20.124Z,10.30
2018-12-14T05:01:47.935Z,9.17
2018-12-14T05:04:15.715Z,8.70
2018-12-14T05:06:43.539Z,8.67
2018-12-14T05:09:11.414Z,8.73
2018-12-14T05:11:39.447Z,11.83
2018-12-14T05:14:07.360Z,11.83
2018-12-14T05:16:35.147Z,10.70
2018-12-14T05:19:02.964Z,10.80
2018-12-14T05:21:31.030Z,11.57
2018-12-14T05:23:58.807Z,13.30
2018-12-14T05:26:26.571Z,9.93
2018-12-14T05:28:54.542Z,12.53
2018-12-14T05:31:22.346Z,11.93
2018-12-14T05:33:50.123Z,12.47
2018-12-14T05:36:18.217Z,11.30
2018-12-14T05:38:45.971Z,21.27
2018-12-14T05:41:13.824Z,24.97
2018-12-14T05:43:41.720Z,13.40
2018-12-14T05:46:09.492Z,10.53
2018-12-14T05:48:38.239Z,14.20
2018-12-14T05:51:06.185Z,12.10
2018-12-14T05:53:33.976Z,10.33
2018-12-14T05:56:01.739Z,9.00
2018-12-14T05:58:30.559Z,11.33
2018-12-14T06:00:59.115Z,11.70
2018-12-14T06:03:27.166Z,9.90
2018-12-14T06:05:54.926Z,11.30
2018-12-14T06:08:22.840Z,9.70
2018-12-14T06:10:50.783Z,10.50
2018-12-14T06:13:18.684Z,10.90
2018-12-14T06:15:46.452Z,10.30
2018-12-14T06:18:14.367Z,9.17
2018-12-14T06:20:42.240Z,8.47
2018-12-14T06:23:10.013Z,11.33
2018-12-14T06:25:37.740Z,20.37
2018-12-14T06:28:05.531Z,10.97
2018-12-14T06:30:33.290Z,12.07
2018-12-14T06:33:01.047Z,11.60
2018-12-14T06:35:28.864Z,14.13
2018-12-14T06:37:56.634Z,10.20
2018-12-14T06:40:24.451Z,13.27
2018-12-14T06:42:52.183Z,8.40
2018-12-14T06:45:20.048Z,10.43
2018-12-14T06:47:47.897Z,11.17
2018-12-14T06:50:15.989Z,13.57
2018-12-14T06:52:43.798Z,13.57
2018-12-14T06:55:11.683Z,11.00
2018-12-14T06:57:39.462Z,13.33
2018-12-14T07:00:07.595Z,11.73
2018-12-14T07:02:35.611Z,9.83
2018-12-14T07:05:03.537Z,10.37
2018-12-14T07:07:31.291Z,8.67
2018-12-14T07:09:59.170Z,7.67
2018-12-14T07:12:27.000Z,7.77
2018-12-14T07:14:54.786Z,10.27
2018-12-14T07:17:23.623Z,9.57
2018-12-14T07:19:51.423Z,10.40
2018-12-14T07:22:19.340Z,8.33
2018-12-14T07:24:47.391Z,11.77
2018-12-14T07:27:15.261Z,9.00
2018-12-14T07:29:43.211Z,10.57
2018-12-14T07:32:11.109Z,9.57
2018-12-14T07:34:38.855Z,11.97
2018-12-14T07:37:06.627Z,11.00
2018-12-14T07:39:34.432Z,12.17
2018-12-14T07:42:02.231Z,20.30
2018-12-14T07:44:30.118Z,13.60
2018-12-14T07:46:58.182Z,9.43
2018-12-14T07:49:25.967Z,10.57
2018-12-14T07:51:53.732Z,9.63
2018-12-14T07:54:21.503Z,13.37
2018-12-14T07:56:49.316Z,10.67
2018-12-14T07:59:17.252Z,11.53
2018-12-14T08:01:45.048Z,12.03
2018-12-14T08:04:13.223Z,8.67
2018-12-14T08:06:40.999Z,8.47
2018-12-14T08:09:08.851Z,9.50
2018-12-14T08:11:36.639Z,10.53
2018-12-14T08:14:04.410Z,9.50
2018-12-14T08:16:32.142Z,8.83
2018-12-14T08:18:59.879Z,13.63
2018-12-14T08:21:27.672Z,9.40
2018-12-14T08:23:55.432Z,11.87
2018-12-14T08:26:23.228Z,9.97
2018-12-14T08:28:50.987Z,11.73
2018-12-14T08:31:19.038Z,11.97
2018-12-14T08:33:46.857Z,9.33
2018-12-14T08:36:14.692Z,11.03
2018-12-14T08:38:42.535Z,11.60
2018-12-14T08:41:10.296Z,7.73
2018-12-14T08:43:41.457Z,12.47
2018-12-14T08:46:07.975Z,10.60
2018-12-14T08:48:35.724Z,9.43
2018-12-14T08:51:03.472Z,12.07
2018-12-14T08:53:31.461Z,10.10
2018-12-14T08:55:59.201Z,11.13
2018-12-14T08:58:27.111Z,12.70
2018-12-14T09:00:54.862Z,11.20
2018-12-14T09:03:23.094Z,12.60
2018-12-14T09:05:50.815Z,8.10
2018-12-14T09:08:18.610Z,8.87
2018-12-14T09:10:46.465Z,10.67
2018-12-14T09:13:14.844Z,9.60
2018-12-14T09:15:42.726Z,14.17
2018-12-14T09:18:10.558Z,11.43
2018-12-14T09:20:38.351Z,12.23
2018-12-14T09:23:06.426Z,12.00
2018-12-14T09:25:34.187Z,11.07
2018-12-14T09:28:01.958Z,11.00
2018-12-14T09:30:29.767Z,9.47
2018-12-14T09:32:57.555Z,9.83
2018-12-14T09:35:25.306Z,12.37
2018-12-14T09:37:53.092Z,12.93
2018-12-14T09:40:20.863Z,17.43
2018-12-14T09:42:48.643Z,12.50
2018-12-14T09:45:16.576Z,11.93
2018-12-14T09:47:44.315Z,11.70
2018-12-14T09:50:12.111Z,10.93
2018-12-14T09:52:39.895Z,10.90
2018-12-14T09:55:07.635Z,11.37
2018-12-14T09:57:35.399Z,12.93
2018-12-14T10:00:03.656Z,12.80
2018-12-14T10:02:31.455Z,15.93
2018-12-14T10:04:59.215Z,16.03
2018-12-14T10:07:27.008Z,13.07
2018-12-14T10:09:54.751Z,13.57
2018-12-14T10:12:22.551Z,12.07
2018-12-14T10:14:50.379Z,11.47
2018-12-14T10:17:18.265Z,11.17
2018-12-14T10:19:46.046Z,11.33
2018-12-14T10:22:14.047Z,12.00
2018-12-14T10:24:41.831Z,9.67
2018-12-14T10:27:09.600Z,12.10
2018-12-14T10:29:37.380Z,15.33
2018-12-14T10:32:05.119Z,13.43
2018-12-14T10:34:33.672Z,11.20
2018-12-14T10:37:01.416Z,13.37
2018-12-14T10:39:29.871Z,14.20
2018-12-14T10:41:57.690Z,16.47
2018-12-14T10:44:29.685Z,14.67
2018-12-14T10:46:55.241Z,11.93
2018-12-14T10:49:22.988Z,12.87
2018-12-14T10:51:51.070Z,15.17
2018-12-14T10:54:19.661Z,15.07
2018-12-14T10:56:49.515Z,12.17
2018-12-14T10:59:17.341Z,12.50
2018-12-14T11:01:50.783Z,13.93
2018-12-14T11:04:18.648Z,15.60
2018-12-14T11:06:46.899Z,15.70
2018-12-14T11:09:14.959Z,14.83
2018-12-14T11:11:42.791Z,13.60
2018-12-14T11:14:13.979Z,15.77
2018-12-14T11:16:40.560Z,14.33
2018-12-14T11:19:08.431Z,13.00
2018-12-14T11:21:36.207Z,13.87
2018-12-14T11:24:04.047Z,13.83
2018-12-14T11:26:31.858Z,15.43
2018-12-14T11:28:59.686Z,14.57
2018-12-14T11:31:27.675Z,15.07
2018-12-14T11:33:55.427Z,16.23
2018-12-14T11:36:23.521Z,15.90
2018-12-14T11:38:51.267Z,15.87
2018-12-14T11:41:19.293Z,16.00
2018-12-14T11:43:47.190Z,16.53
2018-12-14T11:46:15.183Z,16.13
2018-12-14T11:48:43.026Z,15.47
2018-12-14T11:51:13.408Z,15.80
2018-12-14T11:53:41.220Z,14.03
2018-12-14T11:56:09.079Z,14.37
2018-12-14T11:58:36.867Z,13.70
2018-12-14T12:01:04.823Z,12.87
2018-12-14T12:03:32.614Z,13.13
2018-12-14T12:06:00.914Z,13.03
2018-12-14T12:08:28.741Z,13.50
2018-12-14T12:10:56.567Z,14.40
2018-12-14T12:13:24.516Z,13.97
2018-12-14T12:15:52.295Z,14.37
2018-12-14T12:18:20.074Z,14.77
2018-12-14T12:20:47.871Z,14.43
2018-12-14T12:23:15.716Z,13.93
2018-12-14T12:25:43.520Z,14.07
2018-12-14T12:28:11.387Z,14.27
2018-12-14T12:30:39.135Z,13.20
2018-12-14T12:33:06.879Z,12.60
2018-12-14T12:35:34.659Z,12.03
2018-12-14T12:38:02.543Z,11.90
2018-12-14T12:40:30.306Z,12.33
2018-12-14T12:42:58.138Z,12.37
2018-12-14T12:45:25.890Z,12.47
2018-12-14T12:47:53.683Z,13.57
2018-12-14T12:50:21.451Z,13.13
2018-12-14T12:52:49.207Z,12.50
2018-12-14T12:55:17.034Z,12.43
2018-12-14T12:57:45.287Z,13.57
2018-12-14T13:00:13.303Z,12.63
2018-12-14T13:02:41.315Z,15.10
2018-12-14T13:05:09.168Z,13.70
2018-12-14T13:07:36.942Z,13.33
2018-12-14T13:10:04.745Z,13.37
2018-12-14T13:12:32.494Z,12.63
2018-12-14T13:15:00.268Z,13.00
2018-12-14T13:17:28.046Z,12.13
2018-12-14T13:19:55.811Z,12.23
2018-12-14T13:22:23.598Z,12.03
2018-12-14T13:24:51.363Z,12.67
2018-12-14T13:27:20.478Z,12.93
2018-12-14T13:29:48.493Z,12.63
2018-12-14T13:32:16.263Z,11.37
2018-12-14T13:34:44.078Z,12.63
2018-12-14T13:37:11.891Z,11.87
2018-12-14T13:39:39.656Z,12.07
2018-12-14T13:42:07.511Z,13.17
2018-12-14T13:44:35.941Z,11.73
2018-12-14T13:47:03.665Z,12.40
2018-12-14T13:49:31.450Z,12.27
2018-12-14T13:51:59.237Z,12.77
2018-12-14T13:54:26.960Z,12.40
2018-12-14T13:56:54.698Z,11.57
2018-12-14T13:59:22.493Z,11.90
2018-12-14T14:01:50.315Z,14.43
2018-12-14T14:04:18.238Z,12.57
2018-12-14T14:06:46.066Z,12.57
2018-12-14T14:09:13.838Z,12.30
2018-12-14T14:11:41.652Z,11.57
2018-12-14T14:14:09.502Z,12.50
2018-12-14T14:16:37.895Z,12.00
2018-12-14T14:19:05.632Z,12.53
2018-12-14T14:21:33.376Z,12.27
2018-12-14T14:24:01.189Z,11.80
2018-12-14T14:26:29.614Z,12.80
2018-12-14T14:28:57.391Z,12.23
2018-12-14T14:31:25.172Z,12.20
2018-12-14T14:33:52.959Z,13.33
2018-12-14T14:36:20.852Z,13.53
2018-12-14T14:38:48.916Z,12.80
2018-12-14T14:41:16.899Z,14.57
2018-12-14T14:43:44.786Z,13.20
2018-12-14T14:46:12.567Z,13.00
2018-12-14T14:48:40.302Z,12.83
2018-12-14T14:51:08.494Z,15.70
2018-12-14T14:53:36.244Z,14.43
2018-12-14T14:56:03.991Z,17.17
2018-12-14T14:58:31.755Z,15.60
2018-12-14T15:00:59.503Z,14.20
2018-12-14T15:03:27.451Z,16.93
2018-12-14T15:05:55.199Z,18.43
2018-12-14T15:08:22.987Z,19.97
2018-12-14T15:10:50.783Z,27.13
2018-12-14T15:13:18.726Z,30.90
2018-12-14T15:15:46.560Z,31.13
2018-12-14T15:18:14.339Z,30.87
2018-12-14T15:20:42.116Z,23.03
2018-12-14T15:23:09.819Z,21.53
2018-12-14T15:25:37.700Z,24.17
2018-12-14T15:28:05.442Z,25.03
2018-12-14T15:30:33.199Z,22.20
2018-12-14T15:33:00.976Z,20.37
2018-12-14T15:35:28.747Z,23.67
2018-12-14T15:37:56.512Z,24.20
2018-12-14T15:40:24.254Z,23.73
2018-12-14T15:42:52.030Z,26.67
2018-12-14T15:45:19.834Z,23.50
2018-12-14T15:47:47.926Z,22.27
2018-12-14T15:50:15.812Z,26.20
2018-12-14T15:52:43.569Z,25.73
2018-12-14T15:55:11.359Z,23.17
2018-12-14T15:57:39.101Z,24.60
2018-12-14T16:00:07.494Z,25.47
2018-12-14T16:02:35.286Z,21.37
2018-12-14T16:05:03.241Z,28.20
2018-12-14T16:07:31.018Z,23.00
2018-12-14T16:09:58.776Z,21.57
2018-12-14T16:12:26.577Z,23.53
2018-12-14T16:14:54.336Z,23.00
2018-12-14T16:17:22.406Z,22.77
2018-12-14T16:19:50.290Z,26.57
2018-12-14T16:22:18.536Z,23.30
2018-12-14T16:24:46.527Z,22.57
2018-12-14T16:27:14.505Z,22.33
2018-12-14T16:29:42.582Z,19.27
2018-12-14T16:32:10.771Z,20.87
2018-12-14T16:34:38.683Z,17.67
2018-12-14T16:37:07.017Z,18.93
2018-12-14T16:39:35.154Z,14.73
2018-12-14T16:42:03.096Z,13.50
2018-12-14T16:44:30.863Z,20.60
2018-12-14T16:46:58.827Z,12.40
2018-12-14T16:49:26.584Z,13.23
2018-12-14T16:51:54.325Z,14.33
2018-12-14T16:54:22.071Z,15.03
2018-12-14T16:56:50.111Z,14.47
2018-12-14T16:59:18.253Z,13.40
2018-12-14T17:01:46.154Z,13.77
2018-12-14T17:04:13.935Z,13.10
2018-12-14T17:06:41.723Z,12.63
2018-12-14T17:09:09.565Z,12.93
2018-12-14T17:11:37.527Z,14.60
2018-12-14T17:14:05.392Z,13.83
2018-12-14T17:16:33.313Z,13.43
2018-12-14T17:19:01.156Z,14.60
2018-12-14T17:21:28.962Z,13.33
2018-12-14T17:23:56.810Z,15.67
2018-12-14T17:26:24.729Z,15.07
2018-12-14T17:28:52.607Z,14.37
2018-12-14T17:31:20.736Z,13.67
2018-12-14T17:33:48.579Z,15.93
2018-12-14T17:36:16.404Z,13.80
2018-12-14T17:38:44.223Z,14.00
2018-12-14T17:41:12.290Z,17.50
2018-12-14T17:43:40.103Z,13.93
2018-12-14T17:46:07.889Z,15.77
2018-12-14T17:48:35.706Z,16.33
2018-12-14T17:51:03.520Z,14.67
2018-12-14T17:53:31.343Z,13.27
2018-12-14T17:55:59.115Z,13.67
2018-12-14T17:58:26.955Z,14.40
2018-12-14T18:00:58.366Z,14.77
2018-12-14T18:03:24.888Z,13.37
2018-12-14T18:05:52.753Z,14.23
2018-12-14T18:08:20.622Z,19.03
2018-12-14T18:10:48.591Z,12.87
2018-12-14T18:13:16.434Z,14.93
2018-12-14T18:15:46.433Z,15.63
2018-12-14T18:18:13.957Z,14.20
2018-12-14T18:20:41.799Z,18.17
2018-12-14T18:23:09.615Z,16.80
2018-12-14T18:25:37.435Z,19.27
2018-12-14T18:28:05.223Z,17.87
2018-12-14T18:30:32.980Z,15.73
2018-12-14T18:33:01.016Z,18.93
2018-12-14T18:35:28.790Z,16.47
2018-12-14T18:37:56.542Z,16.77
2018-12-14T18:40:24.297Z,15.50
2018-12-14T18:42:52.143Z,16.90
2018-12-14T18:45:20.090Z,16.87
2018-12-14T18:47:48.064Z,16.07
2018-12-14T18:50:15.816Z,14.17
2018-12-14T18:52:43.613Z,15.40
2018-12-14T18:55:11.559Z,15.50
2018-12-14T18:57:39.443Z,14.90
2018-12-14T19:00:09.238Z,18.30
2018-12-14T19:02:37.031Z,18.30
2018-12-14T19:05:05.479Z,16.03
2018-12-14T19:07:33.259Z,17.73
2018-12-14T19:10:01.007Z,15.93
2018-12-14T19:12:29.006Z,15.13
2018-12-14T19:14:56.980Z,14.30
2018-12-14T19:17:24.870Z,14.73
2018-12-14T19:19:52.720Z,14.60
2018-12-14T19:22:20.531Z,14.93
2018-12-14T19:24:48.434Z,15.73
2018-12-14T19:27:16.191Z,16.17
2018-12-14T19:29:43.926Z,17.80
2018-12-14T19:32:11.723Z,17.53
2018-12-14T19:34:39.491Z,14.90
2018-12-14T19:37:07.403Z,16.93
2018-12-14T19:39:35.211Z,15.37
2018-12-14T19:42:03.044Z,16.07
2018-12-14T19:44:30.841Z,16.50
2018-12-14T19:46:58.727Z,16.77
2018-12-14T19:49:26.644Z,16.50
2018-12-14T19:51:54.706Z,15.50
2018-12-14T19:54:22.744Z,15.63
2018-12-14T19:56:50.956Z,15.47
2018-12-14T19:59:18.955Z,15.97
2018-12-14T20:01:46.848Z,16.73
2018-12-14T20:04:14.708Z,14.57
2018-12-14T20:06:42.456Z,13.43
2018-12-14T20:09:10.293Z,17.40
2018-12-14T20:11:38.039Z,15.50
2018-12-14T20:14:05.830Z,15.77
2018-12-14T20:16:33.628Z,14.47
2018-12-14T20:19:01.399Z,15.33
2018-12-14T20:21:29.203Z,14.43
2018-12-14T20:23:56.971Z,16.17
2018-12-14T20:26:24.690Z,14.60
2018-12-14T20:28:52.568Z,13.47
2018-12-14T20:31:20.411Z,16.00
2018-12-14T20:33:48.194Z,16.67
2018-12-14T20:36:16.064Z,16.17
2018-12-14T20:38:43.807Z,19.43
2018-12-14T20:41:11.587Z,14.83
2018-12-14T20:43:39.323Z,16.13
2018-12-14T20:46:07.091Z,16.37
2018-12-14T20:48:34.914Z,15.63
2018-12-14T20:51:03.846Z,15.83
2018-12-14T20:53:31.667Z,14.60
2018-12-14T20:55:59.458Z,15.70
2018-12-14T20:58:27.227Z,16.23
2018-12-14T21:00:55.020Z,13.50
2018-12-14T21:03:22.875Z,30.97
2018-12-14T21:05:50.731Z,15.13
2018-12-14T21:08:18.683Z,17.17
2018-12-14T21:10:46.450Z,14.03
2018-12-14T21:13:14.257Z,16.67
2018-12-14T21:15:42.155Z,17.43
2018-12-14T21:18:09.975Z,16.57
2018-12-14T21:20:37.842Z,14.50
2018-12-14T21:23:05.784Z,14.17
2018-12-14T21:25:33.607Z,15.40
2018-12-14T21:28:01.352Z,15.20
2018-12-14T21:30:29.128Z,17.53
2018-12-14T21:32:56.988Z,14.57
2018-12-14T21:35:24.836Z,15.80
2018-12-14T21:37:52.919Z,15.27
2018-12-14T21:40:20.838Z,13.73
2018-12-14T21:42:48.606Z,13.13
2018-12-14T21:45:16.564Z,13.00
2018-12-14T21:47:44.403Z,11.03
2018-12-14T21:50:12.375Z,12.73
2018-12-14T21:52:40.204Z,12.53
2018-12-14T21:55:08.123Z,12.97
2018-12-14T21:57:36.211Z,15.77
2018-12-14T22:00:07.211Z,12.93
2018-12-14T22:02:35.715Z,12.13
2018-12-14T22:05:04.140Z,12.60
2018-12-14T22:07:31.984Z,12.23
2018-12-14T22:09:59.753Z,12.27
2018-12-14T22:12:27.580Z,11.17
2018-12-14T22:14:55.426Z,13.10
2018-12-14T22:17:23.231Z,13.17
2018-12-14T22:19:51.029Z,13.33
2018-12-14T22:22:18.831Z,13.13
2018-12-14T22:24:46.611Z,12.20
2018-12-14T22:27:14.431Z,11.30
2018-12-14T22:29:42.263Z,13.30
2018-12-14T22:32:10.108Z,14.03
2018-12-14T22:34:37.954Z,14.60
2018-12-14T22:37:05.776Z,15.57
2018-12-14T22:39:34.153Z,13.47
2018-12-14T22:42:01.953Z,17.20
2018-12-14T22:44:29.759Z,15.83
2018-12-14T22:46:57.583Z,13.43
2018-12-14T22:49:25.363Z,13.30
2018-12-14T22:51:53.197Z,13.93
2018-12-14T22:54:20.967Z,12.50
2018-12-14T22:56:48.814Z,12.90
2018-12-14T22:59:17.407Z,10.97
2018-12-14T23:01:45.183Z,12.97
2018-12-14T23:04:12.939Z,12.97
2018-12-14T23:06:40.690Z,13.37
2018-12-14T23:09:08.430Z,14.10
2018-12-14T23:11:36.176Z,13.17
2018-12-14T23:14:04.006Z,13.73
2018-12-14T23:16:31.864Z,12.83
2018-12-14T23:18:59.697Z,15.53
2018-12-14T23:21:27.435Z,11.37
2018-12-14T23:23:55.218Z,13.77
2018-12-14T23:26:23.079Z,12.23
2018-12-14T23:28:50.921Z,11.87
2018-12-14T23:31:18.675Z,13.17
2018-12-14T23:33:47.406Z,13.03
2018-12-14T23:36:15.122Z,13.30
2018-12-14T23:38:42.910Z,13.73
2018-12-14T23:41:10.656Z,17.17
2018-12-14T23:43:38.431Z,12.90
2018-12-14T23:46:06.494Z,14.43
2018-12-14T23:48:34.224Z,13.30
2018-12-14T23:51:01.934Z,14.97
2018-12-14T23:53:29.651Z,13.33
2018-12-14T23:55:57.865Z,13.27
2018-12-14T23:58:25.627Z,18.20
